Time;durP1;ratioP1;P1;durP2;ratioP2;P2;SDS_P1;SDS_P2;PMS_P1;PMS_P2;Temp;Humidity;BMP_temperature;BMP_pressure;BME280_temperature;BME280_humidity;BME280_pressure;Samples;Min_cycle;Max_cycle;Signal;HPM_P1;HPM_P2
2021/10/04 00:00:31;;;;;;;0.30;0.30;;;;;;;;;;5021534;28;20215;-83
2021/10/04 00:02:59;;;;;;;0.40;0.40;;;;;;;;;;5021832;28;20199;-83
2021/10/04 00:05:27;;;;;;;0.30;0.30;;;;;;;;;;5021702;28;20290;-84
2021/10/04 00:07:54;;;;;;;0.20;0.20;;;;;;;;;;5023057;28;20207;-83
2021/10/04 00:10:24;;;;;;;0.30;0.30;;;;;;;;;;5019769;28;20605;-83
2021/10/04 00:12:52;;;;;;;0.50;0.50;;;;;;;;;;5017391;28;20289;-83
2021/10/04 00:15:25;;;;;;;0.93;0.93;;;;;;;;;;5017687;28;20180;-83
2021/10/04 00:17:53;;;;;;;0.28;0.28;;;;;;;;;;5017942;28;20179;-83
2021/10/04 00:20:21;;;;;;;0.40;0.40;;;;;;;;;;5016940;28;20597;-83
2021/10/04 00:22:49;;;;;;;0.52;0.40;;;;;;;;;;5017155;28;20283;-84
2021/10/04 00:25:17;;;;;;;0.30;0.30;;;;;;;;;;5016768;28;20195;-83
2021/10/04 00:27:45;;;;;;;0.25;0.25;;;;;;;;;;5017000;28;20218;-84
2021/10/04 00:30:14;;;;;;;0.30;0.30;;;;;;;;;;5017092;28;20223;-83
2021/10/04 00:32:44;;;;;;;0.30;0.30;;;;;;;;;;5017721;28;20183;-83
2021/10/04 00:35:15;;;;;;;0.32;0.32;;;;;;;;;;5017392;28;20203;-83
2021/10/04 00:37:44;;;;;;;0.47;0.47;;;;;;;;;;5017398;28;20650;-83
2021/10/04 00:40:16;;;;;;;0.30;0.30;;;;;;;;;;5017365;28;20214;-84
2021/10/04 00:42:45;;;;;;;0.20;0.20;;;;;;;;;;5018111;28;20191;-83
2021/10/04 00:45:13;;;;;;;0.50;0.50;;;;;;;;;;5017147;28;20199;-83
2021/10/04 00:47:41;;;;;;;0.40;0.40;;;;;;;;;;5016992;28;20211;-83
2021/10/04 00:50:11;;;;;;;0.57;0.57;;;;;;;;;;5017034;28;20255;-83
2021/10/04 00:52:40;;;;;;;0.40;0.40;;;;;;;;;;5016669;28;20175;-84
2021/10/04 00:55:10;;;;;;;0.40;0.40;;;;;;;;;;5017026;28;20187;-83
2021/10/04 00:57:39;;;;;;;0.47;0.47;;;;;;;;;;5015927;28;20241;-83
2021/10/04 01:00:11;;;;;;;0.50;0.50;;;;;;;;;;5000868;28;20295;-83
2021/10/04 01:02:39;;;;;;;0.30;0.30;;;;;;;;;;4996926;28;20191;-83
2021/10/04 01:05:08;;;;;;;0.38;0.38;;;;;;;;;;4996990;28;20666;-84
2021/10/04 01:07:36;;;;;;;0.43;0.43;;;;;;;;;;4997460;28;20208;-82
2021/10/04 01:10:06;;;;;;;0.60;0.60;;;;;;;;;;5009333;28;20218;-84
2021/10/04 01:12:34;;;;;;;0.85;0.50;;;;;;;;;;5016838;28;20194;-83
2021/10/04 01:15:01;;;;;;;0.50;0.50;;;;;;;;;;5016116;28;20211;-83
2021/10/04 01:17:30;;;;;;;0.40;0.40;;;;;;;;;;5016168;28;20187;-83
2021/10/04 01:19:58;;;;;;;0.68;0.65;;;;;;;;;;5015770;28;20735;-82
2021/10/04 01:22:26;;;;;;;0.77;0.60;;;;;;;;;;5016297;28;20652;-83
2021/10/04 01:24:54;;;;;;;0.50;0.50;;;;;;;;;;5016336;28;20203;-83
2021/10/04 01:27:21;;;;;;;0.50;0.50;;;;;;;;;;5015935;28;20223;-83
2021/10/04 01:29:49;;;;;;;0.50;0.50;;;;;;;;;;5016048;28;20223;-83
2021/10/04 01:32:16;;;;;;;0.50;0.50;;;;;;;;;;5016177;28;20194;-84
2021/10/04 01:34:45;;;;;;;0.20;0.20;;;;;;;;;;5016248;28;20262;-83
2021/10/04 01:37:12;;;;;;;0.40;0.40;;;;;;;;;;5016359;28;20206;-83
2021/10/04 01:39:41;;;;;;;0.55;0.55;;;;;;;;;;5016374;28;20612;-83
2021/10/04 01:42:09;;;;;;;0.60;0.60;;;;;;;;;;5016538;28;20191;-83
2021/10/04 01:44:36;;;;;;;0.75;0.75;;;;;;;;;;5015963;28;20213;-83
2021/10/04 01:47:04;;;;;;;0.60;0.60;;;;;;;;;;5014716;28;20673;-83
2021/10/04 01:49:32;;;;;;;1.25;1.23;;;;;;;;;;5016146;28;20242;-83
2021/10/04 01:51:59;;;;;;;1.08;0.52;;;;;;;;;;5016096;28;20187;-83
2021/10/04 01:54:27;;;;;;;0.60;0.60;;;;;;;;;;5017056;28;20584;-83
2021/10/04 01:56:55;;;;;;;0.40;0.40;;;;;;;;;;5016781;28;20225;-83
2021/10/04 01:59:23;;;;;;;0.50;0.50;;;;;;;;;;5016402;28;20219;-83
2021/10/04 02:01:50;;;;;;;0.60;0.60;;;;;;;;;;5017034;28;20195;-83
2021/10/04 02:04:18;;;;;;;0.40;0.40;;;;;;;;;;5017026;28;20206;-83
2021/10/04 02:06:49;;;;;;;0.50;0.50;;;;;;;;;;5016984;28;20596;-83
2021/10/04 02:09:17;;;;;;;0.45;0.45;;;;;;;;;;5021008;28;20229;-83
2021/10/04 02:11:44;;;;;;;0.47;0.47;;;;;;;;;;5020763;28;20290;-83
2021/10/04 02:14:14;;;;;;;0.50;0.50;;;;;;;;;;5021121;28;20190;-84
2021/10/04 02:16:42;;;;;;;0.55;0.55;;;;;;;;;;5021022;28;20188;-83
2021/10/04 02:19:09;;;;;;;0.40;0.40;;;;;;;;;;5020182;28;20725;-83
2021/10/04 02:21:37;;;;;;;0.32;0.32;;;;;;;;;;5019941;28;20229;-83
2021/10/04 02:24:05;;;;;;;0.40;0.40;;;;;;;;;;5021107;28;20194;-83
2021/10/04 02:26:33;;;;;;;0.30;0.30;;;;;;;;;;5005920;28;20210;-83
2021/10/04 02:29:01;;;;;;;0.40;0.40;;;;;;;;;;5000899;28;20611;-84
2021/10/04 02:31:30;;;;;;;0.32;0.30;;;;;;;;;;5000456;28;20557;-84
2021/10/04 02:33:57;;;;;;;0.63;0.52;;;;;;;;;;5000679;28;20187;-83
2021/10/04 02:36:25;;;;;;;0.30;0.30;;;;;;;;;;5000520;28;20188;-83
2021/10/04 02:38:53;;;;;;;0.30;0.30;;;;;;;;;;4999930;28;20219;-83
2021/10/04 02:41:21;;;;;;;0.20;0.20;;;;;;;;;;5000464;28;20682;-84
2021/10/04 02:43:48;;;;;;;0.50;0.50;;;;;;;;;;5000648;28;20544;-83
2021/10/04 02:46:16;;;;;;;0.50;0.50;;;;;;;;;;5014999;28;20188;-84
2021/10/04 02:48:45;;;;;;;0.60;0.60;;;;;;;;;;5019988;28;20227;-83
2021/10/04 02:51:12;;;;;;;0.80;0.63;;;;;;;;;;5020266;28;20203;-83
2021/10/04 02:53:40;;;;;;;0.50;0.50;;;;;;;;;;5019953;28;20202;-83
2021/10/04 02:56:08;;;;;;;0.30;0.30;;;;;;;;;;5019222;28;20687;-83
2021/10/04 02:58:35;;;;;;;0.75;0.50;;;;;;;;;;5018891;28;20215;-83
2021/10/04 03:01:03;;;;;;;0.55;0.40;;;;;;;;;;5019483;28;20213;-83
2021/10/04 03:03:30;;;;;;;0.50;0.50;;;;;;;;;;5019971;28;20230;-83
2021/10/04 03:05:59;;;;;;;0.30;0.30;;;;;;;;;;5020129;28;20203;-83
2021/10/04 03:08:27;;;;;;;0.43;0.43;;;;;;;;;;5020311;28;20208;-83
2021/10/04 03:10:54;;;;;;;0.43;0.43;;;;;;;;;;5020464;28;20195;-83
2021/10/04 03:13:22;;;;;;;0.60;0.60;;;;;;;;;;5020424;28;20184;-84
2021/10/04 03:15:49;;;;;;;0.52;0.52;;;;;;;;;;5020070;28;20213;-84
2021/10/04 03:18:17;;;;;;;0.50;0.50;;;;;;;;;;5019542;28;20183;-84
2021/10/04 03:20:44;;;;;;;0.57;0.50;;;;;;;;;;5018874;28;20262;-84
2021/10/04 03:23:13;;;;;;;0.38;0.38;;;;;;;;;;5018907;28;20202;-84
2021/10/04 03:25:41;;;;;;;0.43;0.43;;;;;;;;;;5019178;28;20184;-84
2021/10/04 03:28:09;;;;;;;0.85;0.40;;;;;;;;;;5019466;28;20206;-83
2021/10/04 03:30:37;;;;;;;0.40;0.40;;;;;;;;;;5019131;28;20187;-84
2021/10/04 03:33:05;;;;;;;0.43;0.43;;;;;;;;;;5019758;28;20188;-83
2021/10/04 03:35:33;;;;;;;0.45;0.45;;;;;;;;;;5019239;28;20642;-83
2021/10/04 03:38:00;;;;;;;0.40;0.40;;;;;;;;;;5018913;28;20646;-84
2021/10/04 03:40:29;;;;;;;0.30;0.30;;;;;;;;;;5019830;28;20215;-83
2021/10/04 03:42:57;;;;;;;0.35;0.35;;;;;;;;;;5019737;28;20203;-83
2021/10/04 03:45:24;;;;;;;1.08;1.08;;;;;;;;;;5018814;28;20188;-83
2021/10/04 03:47:52;;;;;;;0.40;0.40;;;;;;;;;;5018122;28;20214;-83
2021/10/04 03:50:19;;;;;;;0.40;0.40;;;;;;;;;;5017517;28;20749;-83
2021/10/04 03:52:47;;;;;;;0.82;0.68;;;;;;;;;;5018052;28;20583;-83
2021/10/04 03:55:16;;;;;;;0.45;0.40;;;;;;;;;;5017684;28;20203;-83
2021/10/04 03:57:46;;;;;;;0.43;0.43;;;;;;;;;;5018412;28;20531;-83
2021/10/04 04:00:17;;;;;;;0.43;0.43;;;;;;;;;;5018042;28;20219;-83
2021/10/04 04:02:44;;;;;;;0.80;0.80;;;;;;;;;;5017266;28;20202;-83
2021/10/04 04:05:12;;;;;;;0.52;0.50;;;;;;;;;;5017352;28;20179;-83
2021/10/04 04:07:40;;;;;;;0.35;0.35;;;;;;;;;;5017545;28;20570;-83
2021/10/04 04:10:10;;;;;;;0.30;0.28;;;;;;;;;;5017565;28;20231;-83
2021/10/04 04:12:38;;;;;;;0.60;0.60;;;;;;;;;;5018240;28;20202;-83
2021/10/04 04:15:10;;;;;;;0.70;0.50;;;;;;;;;;5017704;28;20194;-83
2021/10/04 04:17:38;;;;;;;0.90;0.90;;;;;;;;;;5017693;28;20201;-83
2021/10/04 04:20:07;;;;;;;0.35;0.35;;;;;;;;;;5017436;28;20225;-83
2021/10/04 04:22:34;;;;;;;0.30;0.30;;;;;;;;;;5017213;28;20195;-83
2021/10/04 04:25:02;;;;;;;0.40;0.40;;;;;;;;;;5017574;28;20656;-83
2021/10/04 04:27:29;;;;;;;0.20;0.20;;;;;;;;;;5017217;28;20203;-82
2021/10/04 04:30:00;;;;;;;0.80;0.40;;;;;;;;;;5017476;28;20223;-83
2021/10/04 04:32:30;;;;;;;0.38;0.22;;;;;;;;;;5017554;28;20183;-83
2021/10/04 04:34:58;;;;;;;0.45;0.45;;;;;;;;;;5018919;28;20231;-83
2021/10/04 04:37:25;;;;;;;0.38;0.38;;;;;;;;;;5016750;28;20206;-84
2021/10/04 04:39:53;;;;;;;0.30;0.30;;;;;;;;;;5034367;28;20223;-83
2021/10/04 04:42:20;;;;;;;0.65;0.65;;;;;;;;;;5037848;28;20550;-84
2021/10/04 04:44:48;;;;;;;0.50;0.50;;;;;;;;;;5029935;28;20700;-83
2021/10/04 04:47:15;;;;;;;0.10;0.10;;;;;;;;;;5017745;28;20228;-83
2021/10/04 04:49:44;;;;;;;0.30;0.30;;;;;;;;;;5017803;28;20230;-84
2021/10/04 04:52:12;;;;;;;0.50;0.50;;;;;;;;;;5017957;28;20187;-83
2021/10/04 04:54:51;;;;;;;0.57;0.55;;;;;;;;;;5018462;28;20255;-84
2021/10/04 04:57:19;;;;;;;0.35;0.32;;;;;;;;;;5016873;28;20222;-83
2021/10/04 04:59:46;;;;;;;0.40;0.40;;;;;;;;;;5018467;28;20225;-84
2021/10/04 05:02:14;;;;;;;0.30;0.30;;;;;;;;;;5017664;28;20195;-84
2021/10/04 05:04:42;;;;;;;0.43;0.43;;;;;;;;;;5016439;28;20473;-84
2021/10/04 05:07:10;;;;;;;0.50;0.40;;;;;;;;;;5018148;28;20186;-83
2021/10/04 05:09:37;;;;;;;0.28;0.28;;;;;;;;;;5018116;28;20238;-83
2021/10/04 05:12:06;;;;;;;0.40;0.40;;;;;;;;;;5017712;28;20203;-84
2021/10/04 05:14:33;;;;;;;0.40;0.40;;;;;;;;;;5018231;28;20183;-83
2021/10/04 05:17:01;;;;;;;0.22;0.22;;;;;;;;;;5019821;28;20672;-83
2021/10/04 05:19:29;;;;;;;0.80;0.80;;;;;;;;;;5018866;28;20218;-83
2021/10/04 05:21:57;;;;;;;0.52;0.52;;;;;;;;;;5018319;28;20559;-83
2021/10/04 05:24:25;;;;;;;0.60;0.40;;;;;;;;;;5017882;28;20646;-82
2021/10/04 05:26:56;;;;;;;0.45;0.40;;;;;;;;;;5019168;28;20662;-84
2021/10/04 05:29:23;;;;;;;0.40;0.40;;;;;;;;;;5017821;28;20223;-83
2021/10/04 05:31:51;;;;;;;0.40;0.40;;;;;;;;;;5018268;28;20199;-83
2021/10/04 05:34:19;;;;;;;0.50;0.50;;;;;;;;;;5018543;28;20551;-83
2021/10/04 05:36:46;;;;;;;0.25;0.25;;;;;;;;;;5019056;28;20184;-84
2021/10/04 05:39:15;;;;;;;0.50;0.50;;;;;;;;;;5019332;28;20215;-83
2021/10/04 05:41:42;;;;;;;0.40;0.40;;;;;;;;;;5017746;28;20313;-83
2021/10/04 05:44:10;;;;;;;0.50;0.50;;;;;;;;;;5019033;28;20199;-83
2021/10/04 05:46:38;;;;;;;0.52;0.52;;;;;;;;;;5018385;28;20191;-84
2021/10/04 05:49:05;;;;;;;0.70;0.50;;;;;;;;;;5017624;28;20226;-84
2021/10/04 05:51:33;;;;;;;0.50;0.50;;;;;;;;;;5017613;28;20213;-84
2021/10/04 05:54:00;;;;;;;0.30;0.30;;;;;;;;;;5018784;28;20195;-85
2021/10/04 05:56:29;;;;;;;0.40;0.40;;;;;;;;;;5017823;28;20235;-84
2021/10/04 05:58:56;;;;;;;0.60;0.60;;;;;;;;;;5018672;28;20219;-84
2021/10/04 06:01:23;;;;;;;0.70;0.70;;;;;;;;;;5018134;28;20194;-84
2021/10/04 06:03:51;;;;;;;0.50;0.50;;;;;;;;;;5017943;28;20635;-84
2021/10/04 06:06:18;;;;;;;0.75;0.50;;;;;;;;;;5017494;28;20215;-84
2021/10/04 06:08:46;;;;;;;0.93;0.93;;;;;;;;;;5017764;28;20233;-84
2021/10/04 06:11:13;;;;;;;0.50;0.50;;;;;;;;;;5017351;28;20207;-84
2021/10/04 06:13:42;;;;;;;0.60;0.60;;;;;;;;;;5017146;28;20190;-84
2021/10/04 06:16:10;;;;;;;0.68;0.68;;;;;;;;;;5017783;28;20195;-84
2021/10/04 06:18:42;;;;;;;0.60;0.60;;;;;;;;;;5017722;28;20219;-85
2021/10/04 06:21:19;;;;;;;0.73;0.73;;;;;;;;;;5016839;28;20187;-85
2021/10/04 06:23:46;;;;;;;0.73;0.70;;;;;;;;;;5017958;28;20225;-85
2021/10/04 06:26:14;;;;;;;0.70;0.70;;;;;;;;;;5017647;28;20203;-85
2021/10/04 06:28:43;;;;;;;0.68;0.63;;;;;;;;;;5017513;28;20219;-85
2021/10/04 06:31:12;;;;;;;0.63;0.63;;;;;;;;;;5017179;28;20298;-86
2021/10/04 06:33:40;;;;;;;0.40;0.40;;;;;;;;;;5018080;28;20192;-86
2021/10/04 06:36:07;;;;;;;0.50;0.50;;;;;;;;;;5017697;28;20204;-86
2021/10/04 06:38:35;;;;;;;0.60;0.60;;;;;;;;;;5017820;28;20587;-85
2021/10/04 06:41:02;;;;;;;0.65;0.63;;;;;;;;;;5017771;28;20192;-87
2021/10/04 06:43:30;;;;;;;0.55;0.52;;;;;;;;;;4999246;28;20678;-89
2021/10/04 06:45:59;;;;;;;0.65;0.65;;;;;;;;;;4993967;28;20207;-89
2021/10/04 06:48:26;;;;;;;0.50;0.50;;;;;;;;;;4994374;28;20208;-87
2021/10/04 06:50:54;;;;;;;3.78;0.80;;;;;;;;;;4996160;28;20607;-91
2021/10/04 06:53:21;;;;;;;0.60;0.60;;;;;;;;;;4997154;28;20231;-91
2021/10/04 06:55:49;;;;;;;0.60;0.60;;;;;;;;;;5023469;28;20535;-90
2021/10/04 06:58:16;;;;;;;0.60;0.60;;;;;;;;;;5020153;28;20237;-89
2021/10/04 07:00:44;;;;;;;0.50;0.50;;;;;;;;;;5025492;28;20200;-91
2021/10/04 07:03:13;;;;;;;0.52;0.52;;;;;;;;;;5012472;28;20193;-90
2021/10/04 07:05:42;;;;;;;0.90;0.90;;;;;;;;;;5020456;28;20190;-89
2021/10/04 07:08:09;;;;;;;0.60;0.60;;;;;;;;;;5017334;28;20270;-89
2021/10/04 07:10:37;;;;;;;0.68;0.68;;;;;;;;;;5014851;28;20592;-88
2021/10/04 07:13:05;;;;;;;0.88;0.85;;;;;;;;;;5015884;28;20207;-87
2021/10/04 07:15:33;;;;;;;1.00;1.00;;;;;;;;;;5016219;28;20187;-88
2021/10/04 07:18:01;;;;;;;0.60;0.60;;;;;;;;;;5016647;28;20215;-85
2021/10/04 07:20:29;;;;;;;1.10;1.00;;;;;;;;;;5016505;28;20229;-88
2021/10/04 07:22:59;;;;;;;1.95;0.98;;;;;;;;;;5015993;28;20561;-86
2021/10/04 07:25:26;;;;;;;0.70;0.70;;;;;;;;;;5015586;28;20283;-88
2021/10/04 07:27:54;;;;;;;0.60;0.60;;;;;;;;;;5016583;28;20199;-89
2021/10/04 07:30:22;;;;;;;0.50;0.50;;;;;;;;;;5015132;28;20312;-87
2021/10/04 07:32:49;;;;;;;0.57;0.57;;;;;;;;;;5016587;28;20630;-87
2021/10/04 07:35:18;;;;;;;0.40;0.40;;;;;;;;;;5016315;28;20198;-89
2021/10/04 07:37:47;;;;;;;0.60;0.60;;;;;;;;;;5016988;28;20253;-88
2021/10/04 07:40:16;;;;;;;0.57;0.57;;;;;;;;;;5015486;28;20222;-89
2021/10/04 07:42:43;;;;;;;0.50;0.50;;;;;;;;;;5015653;28;20195;-88
2021/10/04 07:45:12;;;;;;;0.65;0.65;;;;;;;;;;5015855;28;20183;-88
2021/10/04 07:47:40;;;;;;;0.50;0.50;;;;;;;;;;4995978;28;20649;-89
2021/10/04 07:50:10;;;;;;;0.52;0.52;;;;;;;;;;4996016;28;20274;-88
2021/10/04 07:52:38;;;;;;;0.60;0.60;;;;;;;;;;4996394;28;20242;-88
2021/10/04 07:55:08;;;;;;;0.70;0.70;;;;;;;;;;4996594;28;20202;-86
2021/10/04 07:57:36;;;;;;;0.88;0.88;;;;;;;;;;5013242;28;20222;-86
2021/10/04 08:00:06;;;;;;;1.48;0.80;;;;;;;;;;5015265;28;20740;-88
2021/10/04 08:02:36;;;;;;;0.60;0.60;;;;;;;;;;5018343;28;20195;-85
2021/10/04 08:05:04;;;;;;;0.70;0.70;;;;;;;;;;5017457;28;20274;-84
2021/10/04 08:07:31;;;;;;;1.73;0.93;;;;;;;;;;5018937;28;20222;-85
2021/10/04 08:10:00;;;;;;;0.60;0.60;;;;;;;;;;5018497;28;20219;-85
2021/10/04 08:12:29;;;;;;;0.52;0.52;;;;;;;;;;5018902;28;20310;-85
2021/10/04 08:14:57;;;;;;;0.60;0.60;;;;;;;;;;5018435;28;20212;-86
2021/10/04 08:17:26;;;;;;;0.80;0.45;;;;;;;;;;5017773;28;20195;-85
2021/10/04 08:19:55;;;;;;;0.30;0.30;;;;;;;;;;5023690;28;20724;-85
2021/10/04 08:22:22;;;;;;;0.98;0.90;;;;;;;;;;5024926;28;20192;-84
2021/10/04 08:24:50;;;;;;;0.60;0.60;;;;;;;;;;5026222;28;20198;-84
2021/10/04 08:27:18;;;;;;;0.47;0.47;;;;;;;;;;5027111;28;20738;-85
2021/10/04 08:29:47;;;;;;;0.60;0.60;;;;;;;;;;5021406;28;20215;-85
2021/10/04 08:32:15;;;;;;;0.68;0.68;;;;;;;;;;5018409;28;20269;-86
2021/10/04 08:34:42;;;;;;;0.70;0.70;;;;;;;;;;5017725;28;20200;-84
2021/10/04 08:45:38;;;;;;;0.88;0.88;;;;;;;;;;5019780;28;20313;-86
2021/10/04 08:51:51;;;;;;;0.60;0.60;;;;;;;;;;4996125;28;20264;-84
2021/10/04 08:57:41;;;;;;;2.03;0.77;;;;;;;;;;4905410;29;20229;-83
2021/10/04 09:03:10;;;;;;;0.75;0.75;;;;;;;;;;5023050;28;20207;-84
2021/10/04 09:05:47;;;;;;;0.88;0.88;;;;;;;;;;5020549;28;20214;-84
2021/10/04 09:08:18;;;;;;;0.80;0.80;;;;;;;;;;5010055;28;20635;-84
2021/10/04 09:10:56;;;;;;;0.90;0.90;;;;;;;;;;5017915;28;20183;-86
2021/10/04 09:14:11;;;;;;;0.80;0.80;;;;;;;;;;5017940;28;20198;-84
2021/10/04 09:17:11;;;;;;;0.85;0.85;;;;;;;;;;5017127;28;20206;-85
2021/10/04 09:19:47;;;;;;;1.65;0.93;;;;;;;;;;5016817;28;20272;-85
2021/10/04 09:22:51;;;;;;;1.77;1.10;;;;;;;;;;4997394;28;20238;-84
2021/10/04 09:34:14;;;;;;;2.35;1.05;;;;;;;;;;5013650;28;20587;-85
2021/10/04 09:36:46;;;;;;;0.90;0.90;;;;;;;;;;5016047;28;20195;-86
2021/10/04 09:43:10;;;;;;;1.17;0.90;;;;;;;;;;4932638;28;20212;-85
2021/10/04 09:45:38;;;;;;;0.95;0.85;;;;;;;;;;4997525;28;20192;-84
2021/10/04 09:48:11;;;;;;;1.75;0.90;;;;;;;;;;4997460;28;20195;-85
2021/10/04 09:50:40;;;;;;;0.65;0.65;;;;;;;;;;4977938;28;20513;-86
2021/10/04 09:53:12;;;;;;;0.70;0.70;;;;;;;;;;4978164;28;20608;-86
2021/10/04 09:55:41;;;;;;;0.90;0.90;;;;;;;;;;4977727;28;20291;-85
2021/10/04 09:58:14;;;;;;;0.38;0.35;;;;;;;;;;4976715;28;20294;-86
2021/10/04 10:00:46;;;;;;;1.30;0.90;;;;;;;;;;4977737;28;20207;-87
2021/10/04 10:03:17;;;;;;;1.70;1.60;;;;;;;;;;4975793;28;20207;-86
2021/10/04 10:05:50;;;;;;;0.88;0.88;;;;;;;;;;4976024;28;20675;-82
2021/10/04 10:08:19;;;;;;;0.50;0.50;;;;;;;;;;4975852;28;20288;-87
2021/10/04 10:10:48;;;;;;;0.90;0.90;;;;;;;;;;4975605;28;20287;-86
2021/10/04 10:13:19;;;;;;;0.55;0.55;;;;;;;;;;4978490;28;20228;-86
2021/10/04 10:15:49;;;;;;;0.70;0.65;;;;;;;;;;4978255;28;20208;-86
2021/10/04 10:18:21;;;;;;;2.90;0.70;;;;;;;;;;4977713;28;20211;-86
2021/10/04 10:20:55;;;;;;;0.70;0.70;;;;;;;;;;4977637;28;20204;-86
2021/10/04 10:23:49;;;;;;;1.25;0.90;;;;;;;;;;4979015;28;20569;-86
2021/10/04 10:26:37;;;;;;;0.93;0.80;;;;;;;;;;4978429;28;20215;-86
2021/10/04 10:29:24;;;;;;;1.25;1.05;;;;;;;;;;4980741;28;20274;-86
2021/10/04 10:32:13;;;;;;;0.90;0.90;;;;;;;;;;4982637;28;20330;-86
2021/10/04 10:34:55;;;;;;;1.52;0.80;;;;;;;;;;4982228;28;20674;-86
2021/10/04 10:37:46;;;;;;;0.85;0.85;;;;;;;;;;4981987;28;20739;-86
2021/10/04 10:40:16;;;;;;;1.75;1.65;;;;;;;;;;4989100;28;20231;-86
2021/10/04 10:43:02;;;;;;;1.35;1.15;;;;;;;;;;5002061;28;20203;-86
2021/10/04 10:45:42;;;;;;;0.90;0.90;;;;;;;;;;5000953;28;20650;-86
2021/10/04 10:48:11;;;;;;;2.63;0.80;;;;;;;;;;5001526;28;20275;-85
2021/10/04 10:50:42;;;;;;;1.00;0.85;;;;;;;;;;5000627;28;20203;-87
2021/10/04 10:53:31;;;;;;;1.30;1.20;;;;;;;;;;4999620;28;20223;-87
2021/10/04 10:56:04;;;;;;;6.30;1.92;;;;;;;;;;4999691;28;20392;-86
2021/10/04 10:58:33;;;;;;;0.80;0.80;;;;;;;;;;4999644;28;20255;-87
2021/10/04 11:01:16;;;;;;;0.80;0.80;;;;;;;;;;5000154;28;20212;-86
2021/10/04 11:03:53;;;;;;;0.80;0.80;;;;;;;;;;5000752;28;20196;-86
2021/10/04 11:06:36;;;;;;;0.80;0.80;;;;;;;;;;5000229;28;20192;-86
2021/10/04 11:09:04;;;;;;;0.90;0.90;;;;;;;;;;5000543;28;20291;-87
2021/10/04 11:11:35;;;;;;;0.90;0.90;;;;;;;;;;5000066;28;20211;-86
2021/10/04 11:14:16;;;;;;;1.20;0.90;;;;;;;;;;5000288;28;20245;-87
2021/10/04 11:16:59;;;;;;;0.68;0.68;;;;;;;;;;5001124;28;20243;-86
2021/10/04 11:19:38;;;;;;;1.27;0.82;;;;;;;;;;4999836;28;20234;-87
2021/10/04 11:22:11;;;;;;;0.82;0.82;;;;;;;;;;4999843;28;20210;-86
2021/10/04 11:24:38;;;;;;;0.82;0.80;;;;;;;;;;4998025;28;20219;-86
2021/10/04 11:27:06;;;;;;;0.93;0.88;;;;;;;;;;4998921;28;20211;-87
2021/10/04 11:29:35;;;;;;;0.73;0.73;;;;;;;;;;4998708;28;20228;-86
2021/10/04 11:32:14;;;;;;;0.60;0.60;;;;;;;;;;4998929;28;20203;-86
2021/10/04 11:34:42;;;;;;;0.95;0.90;;;;;;;;;;4999298;28;20203;-86
2021/10/04 11:37:09;;;;;;;1.05;0.80;;;;;;;;;;4998515;28;20207;-86
2021/10/04 11:39:37;;;;;;;1.10;1.00;;;;;;;;;;4996795;28;20230;-86
2021/10/04 11:42:07;;;;;;;0.82;0.82;;;;;;;;;;4997461;28;20205;-86
2021/10/04 11:44:39;;;;;;;0.88;0.88;;;;;;;;;;4997451;28;20285;-86
2021/10/04 11:47:09;;;;;;;0.93;0.93;;;;;;;;;;4998693;28;20210;-86
2021/10/04 11:49:39;;;;;;;1.35;1.35;;;;;;;;;;4998145;28;20226;-86
2021/10/04 11:52:15;;;;;;;1.42;1.23;;;;;;;;;;4997905;28;20204;-87
2021/10/04 11:54:45;;;;;;;1.25;1.15;;;;;;;;;;4997777;28;20230;-86
2021/10/04 11:57:16;;;;;;;0.90;0.90;;;;;;;;;;5001301;28;20651;-87
2021/10/04 11:59:51;;;;;;;1.27;1.17;;;;;;;;;;5006494;28;20233;-87
2021/10/04 12:02:25;;;;;;;1.50;1.40;;;;;;;;;;5000300;28;20203;-87
2021/10/04 12:04:53;;;;;;;1.65;1.55;;;;;;;;;;4997277;28;20297;-86
2021/10/04 12:07:21;;;;;;;1.30;1.30;;;;;;;;;;4998146;28;20635;-87
2021/10/04 12:09:56;;;;;;;1.23;1.20;;;;;;;;;;4999743;28;20234;-86
2021/10/04 12:12:34;;;;;;;0.88;0.88;;;;;;;;;;4998803;28;20492;-87
2021/10/04 12:15:02;;;;;;;1.00;1.00;;;;;;;;;;4998953;28;20218;-86
2021/10/04 12:17:35;;;;;;;0.85;0.85;;;;;;;;;;4997066;28;20243;-87
2021/10/04 12:20:03;;;;;;;1.10;1.00;;;;;;;;;;4997646;28;20283;-87
2021/10/04 12:22:34;;;;;;;1.90;1.30;;;;;;;;;;4996743;28;20206;-86
2021/10/04 12:25:02;;;;;;;1.13;1.02;;;;;;;;;;4999033;28;20663;-86
2021/10/04 12:27:29;;;;;;;0.90;0.90;;;;;;;;;;4998201;28;20290;-87
2021/10/04 12:29:58;;;;;;;1.42;1.10;;;;;;;;;;4997415;28;20617;-86
2021/10/04 12:32:35;;;;;;;0.95;0.95;;;;;;;;;;4997671;28;20208;-86
2021/10/04 12:35:15;;;;;;;0.90;0.90;;;;;;;;;;4996367;28;20899;-86
2021/10/04 12:37:47;;;;;;;2.08;1.10;;;;;;;;;;4997872;28;20196;-86
2021/10/04 12:40:29;;;;;;;0.93;0.77;;;;;;;;;;4996781;28;20334;-87
2021/10/04 12:43:04;;;;;;;0.82;0.82;;;;;;;;;;4997866;28;20207;-87
2021/10/04 12:45:33;;;;;;;0.85;0.80;;;;;;;;;;4997290;28;20203;-87
2021/10/04 12:48:09;;;;;;;0.70;0.70;;;;;;;;;;4996319;28;20196;-86
2021/10/04 12:50:39;;;;;;;0.90;0.90;;;;;;;;;;4997268;28;20207;-86
2021/10/04 12:53:20;;;;;;;0.85;0.80;;;;;;;;;;4996919;28;20203;-86
2021/10/04 12:56:01;;;;;;;1.00;1.00;;;;;;;;;;4996947;28;20207;-86
2021/10/04 12:58:32;;;;;;;0.90;0.85;;;;;;;;;;4997570;28;20688;-87
2021/10/04 13:01:12;;;;;;;0.90;0.90;;;;;;;;;;4999259;28;20211;-86
2021/10/04 13:03:58;;;;;;;0.70;0.70;;;;;;;;;;4997832;28;20202;-86
2021/10/04 13:06:28;;;;;;;0.88;0.88;;;;;;;;;;4997867;28;20191;-87
2021/10/04 13:08:56;;;;;;;5.80;0.73;;;;;;;;;;4996775;28;20286;-86
2021/10/04 13:11:24;;;;;;;0.80;0.80;;;;;;;;;;4997513;28;20210;-87
2021/10/04 13:13:52;;;;;;;0.80;0.80;;;;;;;;;;4997113;28;20222;-86
2021/10/04 13:16:19;;;;;;;1.35;1.15;;;;;;;;;;4996612;28;20242;-86
2021/10/04 13:18:47;;;;;;;2.22;2.00;;;;;;;;;;4997794;28;20578;-86
2021/10/04 13:21:16;;;;;;;1.88;1.55;;;;;;;;;;4996050;28;20203;-86
2021/10/04 13:23:43;;;;;;;1.15;1.05;;;;;;;;;;4996898;28;20203;-86
2021/10/04 13:26:14;;;;;;;1.63;1.10;;;;;;;;;;4998190;28;20223;-86
2021/10/04 13:28:41;;;;;;;1.17;1.08;;;;;;;;;;4997633;28;20710;-86
2021/10/04 13:31:11;;;;;;;0.80;0.80;;;;;;;;;;4996698;28;20677;-86
2021/10/04 13:33:40;;;;;;;1.15;1.10;;;;;;;;;;4996188;28;20725;-86
2021/10/04 13:36:08;;;;;;;0.90;0.90;;;;;;;;;;4997158;28;20214;-86
2021/10/04 13:38:37;;;;;;;0.93;0.93;;;;;;;;;;4997486;28;20694;-86
2021/10/04 13:41:06;;;;;;;0.80;0.80;;;;;;;;;;4997490;28;20243;-87
2021/10/04 13:43:35;;;;;;;0.75;0.75;;;;;;;;;;4997326;28;20203;-86
2021/10/04 13:46:04;;;;;;;1.35;1.17;;;;;;;;;;4999109;28;20192;-86
2021/10/04 13:48:31;;;;;;;1.17;1.08;;;;;;;;;;4997766;28;20223;-86
2021/10/04 13:51:00;;;;;;;1.75;1.05;;;;;;;;;;4997712;28;20207;-87
2021/10/04 13:53:30;;;;;;;1.42;1.30;;;;;;;;;;4997324;28;20211;-86
2021/10/04 13:56:01;;;;;;;0.90;0.90;;;;;;;;;;4998427;28;20203;-85
2021/10/04 13:58:29;;;;;;;1.55;1.05;;;;;;;;;;4997811;28;20219;-86
2021/10/04 14:00:57;;;;;;;1.25;1.02;;;;;;;;;;4998021;28;20203;-86
2021/10/04 14:03:26;;;;;;;0.80;0.80;;;;;;;;;;4996292;28;20211;-86
2021/10/04 14:05:54;;;;;;;1.08;0.98;;;;;;;;;;4996916;28;20214;-86
2021/10/04 14:08:22;;;;;;;1.42;1.17;;;;;;;;;;4998500;28;20246;-86
2021/10/04 14:10:50;;;;;;;1.05;0.95;;;;;;;;;;4998056;28;20231;-85
2021/10/04 14:13:18;;;;;;;1.77;1.48;;;;;;;;;;4997726;28;20210;-87
2021/10/04 14:15:46;;;;;;;1.25;1.10;;;;;;;;;;4997573;28;20238;-86
2021/10/04 14:18:13;;;;;;;1.67;1.55;;;;;;;;;;4998642;28;20223;-85
2021/10/04 14:20:41;;;;;;;1.25;1.00;;;;;;;;;;4997246;28;20207;-86
2021/10/04 14:23:08;;;;;;;0.60;0.60;;;;;;;;;;4997258;28;20227;-86
2021/10/04 14:25:36;;;;;;;0.60;0.60;;;;;;;;;;4996019;28;20199;-86
2021/10/04 14:28:04;;;;;;;0.70;0.70;;;;;;;;;;4995047;28;20239;-85
2021/10/04 14:30:33;;;;;;;0.80;0.80;;;;;;;;;;4993956;28;20224;-86
2021/10/04 14:33:00;;;;;;;0.95;0.90;;;;;;;;;;4993750;28;20663;-85
2021/10/04 14:35:27;;;;;;;0.80;0.80;;;;;;;;;;4993464;28;20224;-85
2021/10/04 14:37:55;;;;;;;1.27;1.17;;;;;;;;;;4992825;28;20199;-85
2021/10/04 14:40:23;;;;;;;1.17;1.17;;;;;;;;;;4993199;28;20239;-86
2021/10/04 14:42:52;;;;;;;0.95;0.95;;;;;;;;;;4992909;28;20299;-85
2021/10/04 14:45:20;;;;;;;0.90;0.90;;;;;;;;;;4992927;28;20204;-85
2021/10/04 14:47:49;;;;;;;1.20;1.10;;;;;;;;;;4993131;28;20215;-86
2021/10/04 14:50:17;;;;;;;1.10;1.00;;;;;;;;;;4992808;28;20227;-85
2021/10/04 14:52:45;;;;;;;0.80;0.80;;;;;;;;;;4992541;28;20671;-85
2021/10/04 14:55:13;;;;;;;0.90;0.90;;;;;;;;;;4992921;28;20223;-86
2021/10/04 14:57:41;;;;;;;0.95;0.95;;;;;;;;;;4993149;28;20207;-86
2021/10/04 15:00:11;;;;;;;1.10;1.02;;;;;;;;;;4992067;28;20624;-86
2021/10/04 15:02:39;;;;;;;1.40;1.27;;;;;;;;;;4992788;28;20612;-87
2021/10/04 15:05:09;;;;;;;1.70;1.10;;;;;;;;;;4993245;28;20204;-86
2021/10/04 15:07:37;;;;;;;0.93;0.93;;;;;;;;;;4992640;28;20204;-86
2021/10/04 15:10:06;;;;;;;0.90;0.90;;;;;;;;;;4992734;28;20595;-87
2021/10/04 15:12:33;;;;;;;1.25;1.08;;;;;;;;;;4992445;28;20211;-86
2021/10/04 15:15:03;;;;;;;0.90;0.90;;;;;;;;;;4993700;28;20235;-86
2021/10/04 15:17:32;;;;;;;0.88;0.88;;;;;;;;;;4996502;28;20207;-86
2021/10/04 15:19:59;;;;;;;1.52;1.42;;;;;;;;;;4996110;28;20593;-86
2021/10/04 15:22:29;;;;;;;2.05;1.08;;;;;;;;;;4996368;28;20207;-86
2021/10/04 15:24:56;;;;;;;1.75;1.30;;;;;;;;;;4997015;28;20581;-85
2021/10/04 15:27:24;;;;;;;0.70;0.70;;;;;;;;;;4996576;28;20203;-87
2021/10/04 15:29:51;;;;;;;0.55;0.55;;;;;;;;;;4995702;28;20223;-86